Warr Acres, Oklahoma
Current Conditions -  °F | °C
As of 5:53 AM on Thursday 27 Nov 2014 (Local Time) from KPWA Reporting Station
Clear Clear  
Wind Chill: 24°   Ceiling: Unl
Heat Index: 30°   Visibility: 10mi
Dew Point: 23°   Wind: 6mph
Humidity: 75%   Direction: 30°NNE
Pressure: 30.49"   Gusts: NA
Location:  35.5369°N, 97.6228°W
Report Text: KPWA 271153Z AUTO 03005KT 10SM CLR M01/M05 A3049 RMK AO2 SLP332 T10111050 10017 21017 55004
Loading
Personal Weather Stations






























Interactive Weather Map New forecast layout! Learn more

10-Day Weather Forecast

Advertisements
Track Severe Weather on mobile